createdAt,value
2017-12-29T00:00:47.554Z,4.20
2017-12-29T00:03:15.066Z,4.20
2017-12-29T00:05:42.560Z,4.20
2017-12-29T00:08:10.050Z,4.20
2017-12-29T00:10:38.317Z,4.20
2017-12-29T00:13:06.577Z,4.10
2017-12-29T00:15:34.083Z,4.10
2017-12-29T00:18:01.561Z,4.10
2017-12-29T00:20:29.049Z,4.00
2017-12-29T00:22:56.548Z,4.00
2017-12-29T00:25:24.813Z,3.90
2017-12-29T00:27:53.086Z,3.90
2017-12-29T00:30:21.341Z,3.90
2017-12-29T00:32:48.858Z,3.90
2017-12-29T00:35:16.357Z,3.90
2017-12-29T00:37:43.835Z,3.90
2017-12-29T00:40:12.126Z,3.90
2017-12-29T00:42:40.381Z,3.90
2017-12-29T00:45:07.883Z,3.90
2017-12-29T00:47:35.390Z,3.90
2017-12-29T00:50:02.874Z,3.90
2017-12-29T00:52:31.142Z,4.00
2017-12-29T00:54:59.400Z,4.00
2017-12-29T00:57:26.881Z,4.00
2017-12-29T00:59:55.162Z,3.90
2017-12-29T01:02:23.409Z,3.90
2017-12-29T01:04:50.909Z,3.90
2017-12-29T01:07:19.165Z,3.90
2017-12-29T01:09:47.417Z,3.90
2017-12-29T01:12:14.921Z,3.90
2017-12-29T01:14:42.508Z,3.90
2017-12-29T01:17:10.025Z,3.90
2017-12-29T01:19:38.269Z,3.90
2017-12-29T01:22:05.749Z,3.90
2017-12-29T01:24:34.017Z,3.90
2017-12-29T01:27:01.501Z,3.80
2017-12-29T01:29:29.780Z,3.90
2017-12-29T01:31:58.045Z,3.80
2017-12-29T01:34:26.298Z,3.80
2017-12-29T01:36:53.789Z,3.80
2017-12-29T01:39:22.059Z,3.80
2017-12-29T01:41:50.331Z,3.70
2017-12-29T01:44:18.581Z,3.70
2017-12-29T01:46:46.840Z,3.80
2017-12-29T01:49:14.345Z,3.70
2017-12-29T01:51:48.142Z,3.70
2017-12-29T01:54:16.422Z,3.80
2017-12-29T01:56:43.916Z,3.70
2017-12-29T01:59:11.418Z,3.70
2017-12-29T02:01:38.901Z,3.70
2017-12-29T02:04:07.156Z,3.70
2017-12-29T02:06:34.661Z,3.70
2017-12-29T02:09:02.145Z,3.80
2017-12-29T02:11:29.631Z,3.70
2017-12-29T02:13:57.141Z,3.70
2017-12-29T02:16:24.633Z,3.70
2017-12-29T02:18:52.138Z,3.80
2017-12-29T02:21:20.393Z,3.80
2017-12-29T02:23:47.880Z,3.80
2017-12-29T02:26:16.145Z,3.80
2017-12-29T02:28:44.397Z,3.90
2017-12-29T02:31:11.898Z,3.90
2017-12-29T02:33:39.382Z,3.90
2017-12-29T02:36:06.883Z,3.90
2017-12-29T02:38:34.382Z,3.90
2017-12-29T02:41:01.861Z,3.80
2017-12-29T02:43:29.361Z,3.80
2017-12-29T02:45:57.615Z,3.80
2017-12-29T02:48:25.113Z,3.80
2017-12-29T02:50:53.373Z,3.70
2017-12-29T02:53:21.648Z,3.70
2017-12-29T02:55:49.129Z,3.70
2017-12-29T02:58:17.373Z,3.70
2017-12-29T03:00:44.878Z,3.70
2017-12-29T03:03:12.365Z,3.70
2017-12-29T03:05:39.858Z,3.70
2017-12-29T03:08:07.333Z,3.60
2017-12-29T03:10:35.600Z,3.60
2017-12-29T03:13:03.849Z,3.60
2017-12-29T03:15:31.329Z,3.60
2017-12-29T03:17:59.606Z,3.50
2017-12-29T03:20:27.869Z,3.50
2017-12-29T03:22:55.373Z,3.50
2017-12-29T03:25:22.850Z,3.60
2017-12-29T03:27:50.356Z,3.50
2017-12-29T03:30:18.616Z,3.50
2017-12-29T03:32:46.913Z,3.40
2017-12-29T03:35:15.185Z,3.40
2017-12-29T03:37:43.445Z,3.40
2017-12-29T03:40:10.949Z,3.30
2017-12-29T03:42:38.432Z,3.30
2017-12-29T03:45:05.938Z,3.30
2017-12-29T03:47:34.188Z,3.30
2017-12-29T03:50:01.673Z,3.30
2017-12-29T03:52:29.962Z,3.30
2017-12-29T03:54:58.209Z,3.20
2017-12-29T03:57:25.706Z,3.20
2017-12-29T03:59:53.957Z,3.20
2017-12-29T04:02:21.562Z,3.20
2017-12-29T04:04:49.058Z,3.20
2017-12-29T04:07:16.541Z,3.20
2017-12-29T04:09:44.814Z,3.00
2017-12-29T04:12:13.070Z,3.00
2017-12-29T04:14:40.569Z,3.00
2017-12-29T04:17:08.825Z,3.00
2017-12-29T04:19:37.095Z,3.10
2017-12-29T04:22:04.581Z,3.10
2017-12-29T04:24:32.847Z,3.00
2017-12-29T04:27:01.093Z,3.00
2017-12-29T04:29:29.343Z,2.90
2017-12-29T04:31:56.841Z,2.90
2017-12-29T04:34:24.333Z,2.90
2017-12-29T04:36:51.832Z,2.90
2017-12-29T04:39:19.313Z,2.90
2017-12-29T04:41:46.808Z,2.90
2017-12-29T04:44:14.297Z,2.90
2017-12-29T04:46:41.834Z,2.90
2017-12-29T04:49:10.114Z,2.80
2017-12-29T04:51:37.606Z,2.90
2017-12-29T04:54:05.108Z,2.80
2017-12-29T04:56:33.357Z,2.80
2017-12-29T04:59:00.851Z,2.80
2017-12-29T05:01:29.096Z,2.80
2017-12-29T05:03:56.596Z,2.80
2017-12-29T05:06:24.090Z,2.80
2017-12-29T05:08:51.605Z,2.80
2017-12-29T05:11:19.085Z,2.80
2017-12-29T05:13:46.565Z,2.80
2017-12-29T05:16:14.061Z,2.90
2017-12-29T05:18:42.357Z,2.90
2017-12-29T05:21:09.854Z,2.90
2017-12-29T05:23:37.341Z,2.90
2017-12-29T05:26:04.862Z,3.00
2017-12-29T05:28:32.349Z,2.90
2017-12-29T05:30:59.845Z,2.90
2017-12-29T05:33:27.341Z,2.90
2017-12-29T05:35:54.827Z,2.90
2017-12-29T05:38:22.325Z,2.90
2017-12-29T05:40:50.602Z,2.80
2017-12-29T05:43:18.866Z,2.80
2017-12-29T05:45:47.109Z,2.80
2017-12-29T05:48:14.618Z,2.80
2017-12-29T05:50:42.125Z,2.80
2017-12-29T05:53:09.613Z,2.80
2017-12-29T05:55:37.884Z,2.70
2017-12-29T05:58:06.153Z,2.70
2017-12-29T06:00:33.661Z,2.70
2017-12-29T06:03:01.141Z,2.70
2017-12-29T06:05:28.645Z,2.70
2017-12-29T06:07:56.893Z,2.70
2017-12-29T06:10:24.378Z,2.70
2017-12-29T06:12:52.668Z,2.80
2017-12-29T06:15:20.155Z,2.80
2017-12-29T06:17:47.654Z,2.80
2017-12-29T06:20:15.146Z,2.80
2017-12-29T06:22:42.653Z,2.90
2017-12-29T06:25:10.157Z,2.80
2017-12-29T06:27:38.431Z,2.80
2017-12-29T06:30:06.681Z,2.70
2017-12-29T06:32:34.165Z,2.70
2017-12-29T06:35:02.429Z,2.60
2017-12-29T06:37:30.681Z,2.60
2017-12-29T06:39:58.176Z,2.50
2017-12-29T06:42:26.429Z,2.50
2017-12-29T06:44:53.935Z,2.50
2017-12-29T06:47:21.429Z,2.50
2017-12-29T06:49:48.937Z,2.50
2017-12-29T06:52:16.417Z,2.50
2017-12-29T06:54:43.909Z,2.40
2017-12-29T06:57:11.412Z,2.40
2017-12-29T06:59:38.894Z,2.40
2017-12-29T07:02:06.394Z,2.50
2017-12-29T07:04:33.884Z,2.50
2017-12-29T07:07:02.189Z,2.40
2017-12-29T07:09:29.673Z,2.40
2017-12-29T07:11:57.199Z,2.40
2017-12-29T07:14:24.685Z,2.30
2017-12-29T07:16:52.213Z,2.30
2017-12-29T07:19:19.717Z,2.30
2017-12-29T07:21:47.197Z,2.30
2017-12-29T07:24:15.464Z,2.40
2017-12-29T07:26:43.723Z,2.40
2017-12-29T07:29:11.223Z,2.30
2017-12-29T07:31:39.477Z,2.30
2017-12-29T07:34:06.986Z,2.30
2017-12-29T07:36:34.474Z,2.30
2017-12-29T07:39:01.965Z,2.30
2017-12-29T07:41:30.234Z,2.40
2017-12-29T07:43:58.493Z,2.40
2017-12-29T07:46:25.995Z,2.40
2017-12-29T07:48:53.477Z,2.40
2017-12-29T07:51:20.974Z,2.50
2017-12-29T07:53:48.557Z,2.50
2017-12-29T07:56:16.854Z,2.60
2017-12-29T07:58:44.358Z,2.50
2017-12-29T08:01:11.861Z,2.60
2017-12-29T08:03:39.371Z,2.60
2017-12-29T08:06:06.859Z,2.60
2017-12-29T08:08:35.124Z,2.70
2017-12-29T08:11:02.694Z,2.70
2017-12-29T08:13:30.966Z,2.70
2017-12-29T08:15:58.461Z,2.70
2017-12-29T08:18:25.962Z,2.80
2017-12-29T08:20:53.449Z,2.80
2017-12-29T08:23:21.705Z,2.90
2017-12-29T08:25:49.201Z,2.80
2017-12-29T08:28:17.445Z,2.90
2017-12-29T08:30:44.933Z,2.80
2017-12-29T08:33:13.189Z,3.00
2017-12-29T08:35:41.461Z,3.00
2017-12-29T08:38:08.941Z,2.90
2017-12-29T08:40:37.228Z,3.00
2017-12-29T08:43:04.710Z,3.00
2017-12-29T08:45:32.197Z,3.00
2017-12-29T08:47:59.695Z,3.10
2017-12-29T08:50:27.206Z,3.10
2017-12-29T08:52:54.700Z,3.10
2017-12-29T08:55:23.763Z,3.20
2017-12-29T08:57:51.265Z,3.20
2017-12-29T09:00:18.773Z,3.20
2017-12-29T09:02:46.289Z,3.20
2017-12-29T09:05:13.768Z,3.20
2017-12-29T09:07:41.558Z,3.20
2017-12-29T09:10:09.053Z,3.20
2017-12-29T09:12:37.311Z,3.30
2017-12-29T09:15:05.577Z,3.40
2017-12-29T09:17:33.058Z,3.30
2017-12-29T09:20:02.151Z,3.40
2017-12-29T09:22:29.637Z,3.40
2017-12-29T09:24:57.149Z,3.40
2017-12-29T09:27:24.651Z,3.40
2017-12-29T09:29:52.150Z,3.40
2017-12-29T09:32:19.649Z,3.50
2017-12-29T09:34:47.909Z,3.70
2017-12-29T09:37:15.424Z,3.60
2017-12-29T09:39:42.905Z,3.80
2017-12-29T09:42:10.411Z,3.80
2017-12-29T09:44:38.673Z,3.90
2017-12-29T09:47:06.193Z,3.90
2017-12-29T09:49:33.680Z,3.90
2017-12-29T09:52:01.166Z,4.00
2017-12-29T09:54:29.469Z,4.10
2017-12-29T09:56:56.963Z,4.10
2017-12-29T09:59:24.463Z,4.30
2017-12-29T10:01:52.713Z,4.70
2017-12-29T10:04:20.346Z,4.70
2017-12-29T10:06:47.837Z,4.80
2017-12-29T10:09:15.340Z,5.00
2017-12-29T10:11:42.830Z,5.00
2017-12-29T10:14:10.321Z,5.20
2017-12-29T10:16:38.597Z,5.40
2017-12-29T10:19:06.081Z,5.40
2017-12-29T10:21:33.653Z,5.50
2017-12-29T10:24:01.198Z,5.60
2017-12-29T10:26:28.712Z,5.70
2017-12-29T10:28:56.202Z,5.80
2017-12-29T10:31:24.453Z,5.80
2017-12-29T10:33:51.958Z,5.80
2017-12-29T10:36:19.442Z,5.90
2017-12-29T10:38:46.983Z,5.80
2017-12-29T10:41:14.474Z,5.80
2017-12-29T10:43:41.989Z,5.90
2017-12-29T10:46:09.477Z,5.80
2017-12-29T10:48:36.960Z,5.80
2017-12-29T10:51:04.474Z,5.70
2017-12-29T10:53:31.961Z,5.70
2017-12-29T10:57:06.226Z,5.80
2017-12-29T10:59:34.477Z,5.80
2017-12-29T11:02:01.969Z,5.80
2017-12-29T11:04:30.219Z,5.60
2017-12-29T11:06:57.726Z,5.60
2017-12-29T11:09:25.224Z,5.70
2017-12-29T11:11:52.741Z,5.70
2017-12-29T11:14:20.252Z,5.80
2017-12-29T11:16:47.740Z,5.90
2017-12-29T11:19:16.002Z,5.80
2017-12-29T11:21:44.249Z,5.80
2017-12-29T11:24:11.762Z,5.70
2017-12-29T11:26:39.242Z,5.80
2017-12-29T11:29:06.745Z,5.90
2017-12-29T11:31:34.230Z,5.90
2017-12-29T11:34:01.741Z,5.80
2017-12-29T11:36:29.225Z,5.80
2017-12-29T11:38:57.482Z,5.90
2017-12-29T11:41:24.995Z,5.90
2017-12-29T11:43:52.479Z,6.00
2017-12-29T11:46:19.978Z,6.00
2017-12-29T11:48:48.262Z,6.00
2017-12-29T11:51:16.533Z,6.00
2017-12-29T11:53:44.793Z,6.00
2017-12-29T11:56:12.348Z,6.00
2017-12-29T11:58:39.837Z,6.00
2017-12-29T12:01:07.341Z,6.00
2017-12-29T12:03:34.841Z,5.90
2017-12-29T12:06:03.102Z,5.80
2017-12-29T12:08:30.614Z,5.80
2017-12-29T12:10:58.098Z,5.80
2017-12-29T12:13:25.602Z,5.90
2017-12-29T12:15:53.910Z,6.00
2017-12-29T12:18:21.417Z,5.90
2017-12-29T12:20:48.902Z,5.90
2017-12-29T12:23:17.172Z,5.80
2017-12-29T12:25:45.459Z,5.80
2017-12-29T12:28:12.967Z,5.80
2017-12-29T12:30:40.468Z,5.80
2017-12-29T12:33:08.713Z,5.70
2017-12-29T12:35:36.215Z,5.70
2017-12-29T12:38:03.698Z,5.60
2017-12-29T12:40:31.210Z,5.60
2017-12-29T12:42:58.697Z,5.60
2017-12-29T12:45:26.173Z,5.50
2017-12-29T14:33:51.136Z,4.30
2017-12-29T14:36:18.652Z,4.20
2017-12-29T14:38:46.131Z,4.20
2017-12-29T14:41:13.674Z,4.20
2017-12-29T14:43:41.166Z,4.10
2017-12-29T14:46:08.673Z,4.10
2017-12-29T14:48:36.157Z,4.10
2017-12-29T14:51:03.650Z,4.10
2017-12-29T14:53:31.167Z,4.10
2017-12-29T14:55:58.655Z,4.00
2017-12-29T14:58:26.149Z,4.00
2017-12-29T15:00:54.409Z,3.90
2017-12-29T15:03:21.905Z,3.90
2017-12-29T15:05:49.389Z,3.80
2017-12-29T15:08:16.900Z,3.80
2017-12-29T15:10:45.145Z,3.60
2017-12-29T15:13:12.656Z,3.60
2017-12-29T15:15:40.160Z,3.60
2017-12-29T15:18:07.657Z,3.50
2017-12-29T15:20:37.349Z,3.30
2017-12-29T15:23:04.841Z,3.30
2017-12-29T15:25:32.406Z,3.20
2017-12-29T15:27:59.919Z,3.10
2017-12-29T15:30:27.435Z,3.10
2017-12-29T15:32:54.921Z,3.10
2017-12-29T15:35:22.409Z,3.00
2017-12-29T15:37:50.725Z,3.00
2017-12-29T15:40:18.286Z,2.90
2017-12-29T15:42:45.816Z,2.90
2017-12-29T15:45:14.128Z,3.00
2017-12-29T15:47:41.681Z,2.90
2017-12-29T15:50:09.189Z,3.00
2017-12-29T15:52:36.684Z,3.10
2017-12-29T15:55:04.177Z,3.10
2017-12-29T15:57:31.820Z,3.20
2017-12-29T15:59:59.329Z,3.20
2017-12-29T16:02:27.861Z,3.20
2017-12-29T16:04:55.426Z,3.30
2017-12-29T16:07:22.925Z,3.30
2017-12-29T16:09:50.408Z,3.30
2017-12-29T16:12:18.677Z,3.40
2017-12-29T16:14:46.934Z,3.50
2017-12-29T16:17:14.439Z,3.40
2017-12-29T16:19:41.942Z,3.50
2017-12-29T16:22:09.454Z,3.50
2017-12-29T16:24:37.130Z,3.50
2017-12-29T16:27:04.621Z,3.50
2017-12-29T16:29:32.174Z,3.50
2017-12-29T16:31:59.810Z,3.50
2017-12-29T16:34:27.363Z,3.50
2017-12-29T16:36:55.794Z,3.50
2017-12-29T16:39:23.423Z,3.50
2017-12-29T16:41:50.950Z,3.50
2017-12-29T16:44:19.217Z,3.50
2017-12-29T16:46:47.505Z,3.60
2017-12-29T16:49:15.809Z,3.60
2017-12-29T16:51:43.334Z,3.60
2017-12-29T16:54:11.601Z,3.60
2017-12-29T16:56:39.860Z,3.60
2017-12-29T16:59:08.865Z,3.60
2017-12-29T17:01:36.377Z,3.60
2017-12-29T17:04:04.113Z,3.60
2017-12-29T17:06:32.423Z,3.60
2017-12-29T17:08:59.936Z,3.60
2017-12-29T17:11:28.208Z,3.70
2017-12-29T17:13:56.497Z,3.70
2017-12-29T17:16:24.798Z,3.70
2017-12-29T17:18:52.293Z,3.70
2017-12-29T17:21:19.854Z,3.80
2017-12-29T17:23:47.359Z,3.80
2017-12-29T17:26:15.641Z,3.80
2017-12-29T17:28:43.149Z,3.80
2017-12-29T17:31:10.652Z,3.80
2017-12-29T17:33:38.181Z,3.80
2017-12-29T17:36:05.689Z,3.80
2017-12-29T17:38:33.178Z,3.90
2017-12-29T17:41:00.678Z,3.90
2017-12-29T17:43:29.022Z,3.90
2017-12-29T17:45:56.521Z,3.90
2017-12-29T17:48:24.793Z,4.10
2017-12-29T17:50:53.085Z,4.10
2017-12-29T17:53:20.634Z,4.10
2017-12-29T17:55:48.893Z,4.20
2017-12-29T19:40:18.747Z,4.80
2017-12-29T19:42:46.253Z,4.70
2017-12-29T19:45:13.741Z,4.60
2017-12-29T19:47:42.017Z,4.40
2017-12-29T19:50:10.304Z,4.40
2017-12-29T19:52:37.841Z,4.40
2017-12-29T19:55:05.886Z,4.30
2017-12-29T19:57:34.166Z,4.30
2017-12-29T20:00:01.685Z,4.20
2017-12-29T20:02:29.245Z,4.30
2017-12-29T20:04:56.751Z,4.30
2017-12-29T20:07:24.269Z,4.30
2017-12-29T23:48:08.829Z,5.80
2017-12-29T23:50:36.345Z,5.90
2017-12-29T23:53:04.603Z,5.90
2017-12-29T23:55:32.097Z,5.90
2017-12-29T23:57:59.618Z,5.90
